createdAt,value
2023-05-06T00:00:06.567Z,98021.19
2023-05-06T00:02:33.258Z,98041.75
2023-05-06T00:05:00.154Z,98009.09
2023-05-06T00:07:26.793Z,97996.53
2023-05-06T00:09:53.391Z,98023.88
2023-05-06T00:12:20.442Z,98014.31
2023-05-06T00:14:47.072Z,97992.78
2023-05-06T00:17:13.788Z,98021.47
2023-05-06T00:19:44.513Z,98022.47
2023-05-06T00:22:14.002Z,98010.47
2023-05-06T00:24:43.535Z,98025.81
2023-05-06T00:27:12.250Z,98008.84
2023-05-06T00:29:38.788Z,98024.13
2023-05-06T00:32:05.969Z,98005.16
2023-05-06T00:34:33.020Z,97994.22
2023-05-06T00:36:59.631Z,97979.28
2023-05-06T00:39:26.836Z,98026.94
2023-05-06T00:41:53.436Z,98012.63
2023-05-06T00:44:19.982Z,98019.03
2023-05-06T00:46:46.727Z,97973.34
2023-05-06T00:49:16.409Z,97983.06
2023-05-06T00:51:46.055Z,97996.28
2023-05-06T00:54:16.414Z,98007.66
2023-05-06T00:56:46.054Z,97978.56
2023-05-06T00:59:15.619Z,97977.56
2023-05-06T01:01:45.018Z,97992.97
2023-05-06T01:04:14.837Z,97993.63
2023-05-06T01:06:55.608Z,98010.44
2023-05-06T01:09:54.210Z,98011.53
2023-05-06T01:12:37.545Z,98011.16
2023-05-06T01:15:15.069Z,97999.81
2023-05-06T01:17:47.193Z,98012.28
2023-05-06T01:20:18.508Z,97997.69
2023-05-06T01:22:45.682Z,98004.94
2023-05-06T01:25:22.873Z,98011.34
2023-05-06T01:27:50.540Z,98001.00
2023-05-06T01:30:18.733Z,97996.00
2023-05-06T01:33:09.178Z,97997.88
2023-05-06T01:35:46.040Z,97995.75
2023-05-06T01:38:27.647Z,97991.00
2023-05-06T01:40:57.073Z,97979.47
2023-05-06T01:43:27.167Z,97961.13
2023-05-06T01:45:56.097Z,97980.81
2023-05-06T01:48:29.109Z,97946.78
2023-05-06T01:50:55.904Z,97939.84
2023-05-06T01:53:22.546Z,97959.50
2023-05-06T01:55:49.236Z,97957.47
2023-05-06T01:58:18.716Z,97978.22
2023-05-06T02:00:47.593Z,97943.53
2023-05-06T02:03:14.596Z,97939.50
2023-05-06T02:05:41.890Z,97929.13
2023-05-06T02:08:08.481Z,97943.63
2023-05-06T02:10:35.022Z,97920.13
2023-05-06T02:13:01.735Z,97941.94
2023-05-06T02:15:28.336Z,97915.09
2023-05-06T02:17:54.890Z,97937.72
2023-05-06T02:20:21.496Z,97958.75
2023-05-06T02:22:51.556Z,97918.56
2023-05-06T02:25:22.731Z,97965.63
2023-05-06T02:27:49.256Z,97959.53
2023-05-06T02:30:15.842Z,97955.88
2023-05-06T02:32:42.492Z,97957.09
2023-05-06T02:35:10.053Z,97932.31
2023-05-06T02:37:36.771Z,97959.75
2023-05-06T02:40:04.420Z,97950.38
2023-05-06T02:42:30.977Z,97922.69
2023-05-06T02:44:57.573Z,97942.22
2023-05-06T02:47:24.229Z,97945.88
2023-05-06T02:49:50.834Z,97933.66
2023-05-06T02:52:17.470Z,97942.56
2023-05-06T02:54:44.486Z,97929.00
2023-05-06T02:57:11.071Z,97905.91
2023-05-06T02:59:37.575Z,97944.59
2023-05-06T03:02:04.136Z,97939.03
2023-05-06T03:04:30.887Z,97912.59
2023-05-06T03:06:57.541Z,97940.28
2023-05-06T03:09:24.152Z,97906.25
2023-05-06T03:11:53.757Z,97933.72
2023-05-06T03:14:23.106Z,97902.66
2023-05-06T03:16:52.185Z,97907.78
2023-05-06T03:19:18.809Z,97913.34
2023-05-06T03:21:45.626Z,97912.03
2023-05-06T03:24:12.201Z,97913.88
2023-05-06T03:26:38.719Z,97928.75
2023-05-06T03:29:05.227Z,97926.31
2023-05-06T03:31:32.132Z,97925.09
2023-05-06T03:33:58.704Z,97924.25
2023-05-06T03:36:25.392Z,97882.47
2023-05-06T03:38:54.894Z,97924.38
2023-05-06T03:41:26.180Z,97930.69
2023-05-06T03:43:55.828Z,97925.59
2023-05-06T03:46:24.012Z,97892.88
2023-05-06T03:48:51.685Z,97891.75
2023-05-06T03:51:18.314Z,97868.34
2023-05-06T03:53:44.864Z,97875.31
2023-05-06T03:56:11.353Z,97908.19
2023-05-06T03:58:37.919Z,97900.66
2023-05-06T04:01:04.459Z,97924.59
2023-05-06T04:03:31.137Z,97922.06
2023-05-06T04:05:57.797Z,97890.22
2023-05-06T04:08:27.538Z,97903.19
2023-05-06T04:10:57.887Z,97915.56
2023-05-06T04:13:27.534Z,97917.88
2023-05-06T04:15:57.409Z,97910.13
2023-05-06T04:18:27.134Z,97910.34
2023-05-06T04:20:56.835Z,97905.84
2023-05-06T04:23:24.499Z,97912.31
2023-05-06T04:25:51.030Z,97923.41
2023-05-06T04:28:17.818Z,97926.72
2023-05-06T04:30:45.145Z,97912.38
2023-05-06T04:33:12.601Z,97925.00
2023-05-06T04:35:39.973Z,97933.13
2023-05-06T04:38:06.483Z,97925.84
2023-05-06T04:40:35.223Z,97914.25
2023-05-06T04:43:02.983Z,97910.72
2023-05-06T04:45:30.032Z,97924.59
2023-05-06T04:47:59.703Z,97877.56
2023-05-06T04:50:29.304Z,97890.63
2023-05-06T04:52:59.093Z,97903.19
2023-05-06T04:55:28.410Z,97915.84
2023-05-06T04:57:58.806Z,97917.28
2023-05-06T05:00:29.400Z,97889.97
2023-05-06T05:02:58.842Z,97880.72
2023-05-06T05:05:27.808Z,97895.81
2023-05-06T05:07:57.576Z,97916.13
2023-05-06T05:10:24.120Z,97903.03
2023-05-06T05:12:50.846Z,97923.63
2023-05-06T05:15:17.412Z,97904.91
2023-05-06T05:17:44.741Z,97906.72
2023-05-06T05:20:11.577Z,97888.50
2023-05-06T05:22:38.248Z,97905.97
2023-05-06T05:25:07.467Z,97896.66
2023-05-06T05:27:34.672Z,97913.97
2023-05-06T05:30:01.266Z,97895.06
2023-05-06T05:32:30.895Z,97919.41
2023-05-06T05:35:00.571Z,97908.88
2023-05-06T05:37:29.562Z,97910.22
2023-05-06T05:39:59.157Z,97918.13
2023-05-06T05:42:25.687Z,97920.50
2023-05-06T05:44:52.278Z,97919.06
2023-05-06T05:47:18.868Z,97903.00
2023-05-06T05:49:45.692Z,97895.25
2023-05-06T05:52:12.216Z,97909.72
2023-05-06T05:54:38.754Z,97895.97
2023-05-06T05:57:05.284Z,97910.72
2023-05-06T05:59:32.857Z,97907.34
2023-05-06T06:02:02.619Z,97908.13
2023-05-06T06:04:31.989Z,97896.91
2023-05-06T06:07:00.856Z,97907.53
2023-05-06T06:09:27.662Z,97888.91
2023-05-06T06:11:54.661Z,97913.75
2023-05-06T06:14:21.245Z,97921.03
2023-05-06T06:16:47.890Z,97916.59
2023-05-06T06:19:15.397Z,97921.75
2023-05-06T06:21:42.023Z,97905.38
2023-05-06T06:24:08.652Z,97922.94
2023-05-06T06:26:35.280Z,97924.63
2023-05-06T06:29:05.017Z,97927.63
2023-05-06T06:31:34.977Z,97916.78
2023-05-06T06:34:06.532Z,97896.47
2023-05-06T06:36:33.312Z,97915.81
2023-05-06T06:39:02.072Z,97902.47
2023-05-06T06:41:28.665Z,97919.50
2023-05-06T06:43:55.852Z,97927.78
2023-05-06T06:46:22.503Z,97924.97
2023-05-06T06:48:49.146Z,97903.63
2023-05-06T06:51:15.724Z,97918.31
2023-05-06T06:53:42.996Z,97881.69
2023-05-06T06:56:12.637Z,97878.88
2023-05-06T06:58:39.568Z,97901.50
2023-05-06T07:01:06.286Z,97895.75
2023-05-06T07:03:36.046Z,97885.00
2023-05-06T07:06:04.515Z,97879.63
2023-05-06T07:08:34.692Z,97894.81
2023-05-06T07:11:02.674Z,97881.69
2023-05-06T07:13:29.285Z,97880.72
2023-05-06T07:15:58.833Z,97922.28
2023-05-06T07:18:25.359Z,97925.13
2023-05-06T07:20:52.001Z,97919.78
2023-05-06T07:23:18.575Z,97912.19
2023-05-06T07:25:45.145Z,97887.53
2023-05-06T07:28:17.422Z,97919.81
2023-05-06T07:30:44.056Z,97916.88
2023-05-06T07:33:10.797Z,97914.84
2023-05-06T07:35:37.750Z,97920.59
2023-05-06T07:38:06.873Z,97926.94
2023-05-06T07:40:36.161Z,97923.47
2023-05-06T07:43:07.236Z,97922.19
2023-05-06T07:45:37.025Z,97913.00
2023-05-06T07:48:06.906Z,97883.81
2023-05-06T07:50:37.379Z,97914.41
2023-05-06T07:53:06.859Z,97897.13
2023-05-06T07:55:37.874Z,97893.47
2023-05-06T07:58:05.942Z,97891.00
2023-05-06T08:00:34.741Z,97876.38
2023-05-06T08:03:01.804Z,97886.84
2023-05-06T08:05:28.745Z,97880.03
2023-05-06T08:07:56.001Z,97863.09
2023-05-06T08:10:23.169Z,97880.84
2023-05-06T08:12:50.134Z,97878.75
2023-05-06T08:15:17.352Z,97874.91
2023-05-06T08:17:43.877Z,97862.34
2023-05-06T08:20:11.303Z,97846.06
2023-05-06T08:22:37.892Z,97872.53
2023-05-06T08:25:07.770Z,97861.72
2023-05-06T08:27:37.364Z,97855.03
2023-05-06T08:30:07.286Z,97846.63
2023-05-06T08:32:36.968Z,97857.66
2023-05-06T08:35:07.996Z,97847.94
2023-05-06T08:37:37.594Z,97852.16
2023-05-06T08:40:35.392Z,97854.81
2023-05-06T08:43:07.399Z,97843.28
2023-05-06T08:45:36.998Z,97835.72
2023-05-06T08:48:07.891Z,97846.59
2023-05-06T08:50:42.383Z,97856.91
2023-05-06T08:53:13.405Z,97842.56
2023-05-06T08:55:44.178Z,97849.50
2023-05-06T08:58:13.408Z,97862.72
2023-05-06T09:00:40.274Z,97867.75
2023-05-06T09:03:06.957Z,97863.06
2023-05-06T09:05:37.214Z,97857.88
2023-05-06T09:08:07.339Z,97858.28
2023-05-06T09:10:44.978Z,97857.63
2023-05-06T09:13:16.872Z,97854.91
2023-05-06T09:15:49.378Z,97842.03
2023-05-06T09:18:16.782Z,97847.78
2023-05-06T09:20:48.919Z,97845.91
2023-05-06T09:23:17.339Z,97834.38
2023-05-06T09:25:46.538Z,97844.38
2023-05-06T09:28:14.324Z,97831.84
2023-05-06T09:30:43.221Z,97837.13
2023-05-06T09:33:10.840Z,97849.19
2023-05-06T09:35:42.962Z,97838.63
2023-05-06T09:38:10.621Z,97837.91
2023-05-06T09:40:38.615Z,97837.41
2023-05-06T09:43:10.151Z,97829.44
2023-05-06T09:45:36.780Z,97833.84
2023-05-06T09:48:06.766Z,97821.53
2023-05-06T09:50:35.437Z,97847.91
2023-05-06T09:53:08.071Z,97848.16
2023-05-06T09:55:38.000Z,97844.69
2023-05-06T09:58:08.536Z,97850.34
2023-05-06T10:00:36.449Z,97843.19
2023-05-06T10:03:09.543Z,97816.56
2023-05-06T10:05:37.401Z,97818.00
2023-05-06T10:08:09.241Z,97827.72
2023-05-06T10:10:37.891Z,97829.03
2023-05-06T10:13:08.274Z,97835.91
2023-05-06T10:15:39.029Z,97833.06
2023-05-06T10:18:09.533Z,97836.97
2023-05-06T10:20:36.861Z,97825.19
2023-05-06T10:23:40.384Z,97837.16
2023-05-06T10:26:12.144Z,97826.59
2023-05-06T10:28:46.845Z,97823.22
2023-05-06T10:31:14.229Z,97811.69
2023-05-06T10:33:42.598Z,97811.59
2023-05-06T10:36:27.889Z,97796.50
2023-05-06T10:39:00.755Z,97801.31
2023-05-06T10:41:30.045Z,97799.31
2023-05-06T10:43:57.604Z,97788.66
2023-05-06T10:46:28.239Z,97794.03
2023-05-06T10:49:08.543Z,97785.53
2023-05-06T10:51:38.924Z,97790.25
2023-05-06T10:54:18.686Z,97772.28
2023-05-06T10:56:47.977Z,97774.59
2023-05-06T10:59:14.686Z,97779.34
2023-05-06T11:01:44.895Z,97770.31
2023-05-06T11:04:13.187Z,97779.84
2023-05-06T11:06:48.892Z,97784.63
2023-05-06T11:09:23.213Z,97777.53
2023-05-06T11:11:58.272Z,97772.13
2023-05-06T11:14:37.875Z,97760.19
2023-05-06T11:17:28.479Z,97752.22
2023-05-06T11:20:35.494Z,97749.97
2023-05-06T11:23:02.180Z,97740.44
2023-05-06T11:25:42.494Z,97751.13
2023-05-06T11:28:11.635Z,97747.16
2023-05-06T11:30:41.250Z,97741.78
2023-05-06T11:33:09.059Z,97727.78
2023-05-06T11:35:38.428Z,97735.84
2023-05-06T11:38:07.807Z,97729.50
2023-05-06T11:40:35.183Z,97730.09
2023-05-06T11:43:11.099Z,97741.13
2023-05-06T11:45:45.735Z,97737.56
2023-05-06T11:48:16.744Z,97731.13
2023-05-06T11:50:47.864Z,97715.88
2023-05-06T11:53:18.812Z,97722.53
2023-05-06T11:55:46.696Z,97709.13
2023-05-06T11:58:19.889Z,97721.06
2023-05-06T12:00:51.946Z,97711.25
2023-05-06T12:03:19.947Z,97723.13
2023-05-06T12:05:48.443Z,97708.84
2023-05-06T12:08:27.516Z,97712.34
2023-05-06T12:10:58.324Z,97717.06
2023-05-06T12:13:25.084Z,97705.31
2023-05-06T12:15:58.717Z,97711.59
2023-05-06T12:18:26.078Z,97717.25
2023-05-06T12:20:57.680Z,97680.91
2023-05-06T12:23:27.394Z,97715.31
2023-05-06T12:28:27.005Z,97695.00
2023-05-06T12:30:53.822Z,97708.25
2023-05-06T12:33:21.379Z,97702.78
2023-05-06T12:35:48.263Z,97716.16
2023-05-06T12:38:16.594Z,97701.38
2023-05-06T12:40:45.019Z,97711.13
2023-05-06T12:43:12.634Z,97703.03
2023-05-06T12:45:39.811Z,97684.13
2023-05-06T12:48:18.372Z,97702.56
2023-05-06T12:50:46.630Z,97685.09
2023-05-06T12:53:13.441Z,97702.53
2023-05-06T12:55:42.216Z,97694.19
2023-05-06T12:58:18.992Z,97700.84
2023-05-06T13:00:45.527Z,97695.94
2023-05-06T13:03:13.495Z,97698.28
2023-05-06T13:05:40.073Z,97699.78
2023-05-06T13:08:06.607Z,97686.22
2023-05-06T13:10:35.514Z,97685.97
2023-05-06T13:13:02.246Z,97698.81
2023-05-06T13:15:28.964Z,97687.28
2023-05-06T13:17:57.256Z,97693.44
2023-05-06T13:20:23.896Z,97682.13
2023-05-06T13:22:54.774Z,97676.38
2023-05-06T13:25:22.000Z,97655.22
2023-05-06T13:27:48.740Z,97677.97
2023-05-06T13:30:15.393Z,97672.66
2023-05-06T13:32:42.293Z,97674.34
2023-05-06T13:35:09.470Z,97671.78
2023-05-06T13:37:36.148Z,97671.44
2023-05-06T13:40:05.823Z,97667.16
2023-05-06T13:42:32.603Z,97663.91
2023-05-06T13:44:59.383Z,97658.78
2023-05-06T13:47:26.972Z,97655.31
2023-05-06T13:49:53.551Z,97658.47
2023-05-06T13:52:20.642Z,97654.13
2023-05-06T13:54:47.129Z,97651.34
2023-05-06T13:57:13.602Z,97651.59
2023-05-06T13:59:40.083Z,97639.38
2023-05-06T14:02:10.158Z,97645.09
2023-05-06T14:04:39.660Z,97651.06
2023-05-06T14:07:09.943Z,97654.81
2023-05-06T14:09:39.894Z,97656.63
2023-05-06T14:12:09.469Z,97650.66
2023-05-06T14:14:39.464Z,97623.94
2023-05-06T14:17:10.177Z,97648.78
2023-05-06T14:19:40.080Z,97643.84
2023-05-06T14:22:10.563Z,97646.56
2023-05-06T14:24:38.923Z,97640.56
2023-05-06T14:27:12.725Z,97623.44
2023-05-06T14:29:43.016Z,97636.28
2023-05-06T14:32:09.670Z,97640.78
2023-05-06T14:34:37.824Z,97631.53
2023-05-06T14:37:04.799Z,97647.59
2023-05-06T14:39:31.710Z,97638.38
2023-05-06T14:41:58.205Z,97630.38
2023-05-06T14:44:24.861Z,97620.75
2023-05-06T14:46:51.377Z,97630.47
2023-05-06T14:49:18.033Z,97611.19
2023-05-06T14:51:45.029Z,97632.03
2023-05-06T14:54:11.475Z,97628.31
2023-05-06T14:56:41.358Z,97630.25
2023-05-06T14:59:11.035Z,97598.59
2023-05-06T15:01:38.928Z,97623.28
2023-05-06T15:04:09.115Z,97605.72
2023-05-06T15:06:36.060Z,97608.38
2023-05-06T15:09:04.620Z,97619.97
2023-05-06T15:11:32.060Z,97616.78
2023-05-06T15:13:58.535Z,97620.31
2023-05-06T15:16:25.002Z,97612.06
2023-05-06T15:18:51.545Z,97622.38
2023-05-06T15:21:18.018Z,97618.47
2023-05-06T15:23:46.624Z,97616.06
2023-05-06T15:26:13.356Z,97608.16
2023-05-06T15:28:39.806Z,97619.13
2023-05-06T15:31:06.365Z,97610.31
2023-05-06T15:33:32.868Z,97611.91
2023-05-06T15:35:59.413Z,97613.88
2023-05-06T15:38:25.886Z,97609.53
2023-05-06T15:40:52.687Z,97616.00
2023-05-06T15:43:23.670Z,97604.63
2023-05-06T15:45:51.909Z,97601.28
2023-05-06T15:48:18.587Z,97602.84
2023-05-06T15:50:45.432Z,97572.44
2023-05-06T15:53:11.912Z,97582.88
2023-05-06T15:55:46.919Z,97601.25
2023-05-06T15:58:19.291Z,97586.06
2023-05-06T16:00:45.900Z,97580.84
2023-05-06T16:03:12.910Z,97584.97
2023-05-06T16:05:42.925Z,97597.47
2023-05-06T16:08:09.785Z,97594.94
2023-05-06T16:10:36.297Z,97574.50
2023-05-06T16:13:02.938Z,97584.88
2023-05-06T16:15:29.496Z,97586.56
2023-05-06T16:17:56.054Z,97597.06
2023-05-06T16:20:22.673Z,97573.94
2023-05-06T16:22:50.864Z,97592.53
2023-05-06T16:25:17.380Z,97586.34
2023-05-06T16:27:43.946Z,97578.06
2023-05-06T16:30:12.450Z,97586.81
2023-05-06T16:32:39.143Z,97596.59
2023-05-06T16:35:06.056Z,97588.19
2023-05-06T16:37:32.552Z,97576.78
2023-05-06T16:39:59.060Z,97586.00
2023-05-06T16:42:25.726Z,97583.53
2023-05-06T16:44:52.376Z,97571.06
2023-05-06T16:50:20.660Z,97567.81
2023-05-06T16:52:47.637Z,97562.13
2023-05-06T16:55:14.536Z,97549.91
2023-05-06T16:57:43.343Z,97570.53
2023-05-06T17:00:13.983Z,97564.56
2023-05-06T17:02:40.947Z,97560.78
2023-05-06T17:05:08.183Z,97562.13
2023-05-06T17:07:35.445Z,97553.44
2023-05-06T17:10:02.143Z,97563.50
2023-05-06T17:12:28.828Z,97565.66
2023-05-06T17:14:55.423Z,97570.81
2023-05-06T17:17:25.031Z,97552.66
2023-05-06T17:19:51.876Z,97541.81
2023-05-06T17:22:21.351Z,97513.38
2023-05-06T17:24:50.388Z,97513.91
2023-05-06T17:27:44.752Z,97555.91
2023-05-06T17:30:12.252Z,97507.13
2023-05-06T17:32:40.839Z,97508.38
2023-05-06T17:35:10.547Z,97529.19
2023-05-06T17:37:39.974Z,97518.28
2023-05-06T17:40:24.634Z,97521.19
2023-05-06T17:43:00.440Z,97525.69
2023-05-06T17:49:02.865Z,97548.97
2023-05-06T17:51:53.890Z,97500.31
2023-05-06T17:54:20.546Z,97500.88
2023-05-06T17:59:39.394Z,97551.16
2023-05-06T18:04:54.838Z,97547.00
2023-05-06T18:07:22.556Z,97513.28
2023-05-06T18:09:52.504Z,97502.63
2023-05-06T18:12:40.876Z,97526.69
2023-05-06T18:17:53.498Z,97513.78
2023-05-06T18:20:20.126Z,97534.31
2023-05-06T18:25:27.746Z,97513.59
2023-05-06T18:30:52.486Z,97518.38
2023-05-06T18:33:22.392Z,97506.84
2023-05-06T18:36:25.093Z,97524.00
2023-05-06T18:38:59.285Z,97547.41
2023-05-06T18:41:26.101Z,97507.72
2023-05-06T18:43:56.126Z,97514.38
2023-05-06T18:46:30.534Z,97509.66
2023-05-06T18:49:01.053Z,97518.50
2023-05-06T18:51:38.279Z,97535.31
2023-05-06T18:54:05.414Z,97538.66
2023-05-06T18:56:32.091Z,97541.03
2023-05-06T18:58:58.891Z,97501.72
2023-05-06T19:01:29.722Z,97507.28
2023-05-06T19:10:25.218Z,97546.13
2023-05-06T19:12:52.741Z,97562.00
2023-05-06T19:15:20.526Z,97549.16
2023-05-06T19:17:48.740Z,97554.94
2023-05-06T19:20:15.527Z,97549.44
2023-05-06T19:22:42.382Z,97562.19
2023-05-06T19:25:12.513Z,97574.00
2023-05-06T19:28:06.317Z,97594.81
2023-05-06T19:30:55.477Z,97592.63
2023-05-06T19:33:22.091Z,97570.72
2023-05-06T19:35:52.232Z,97590.25
2023-05-06T19:38:21.999Z,97555.09
2023-05-06T19:40:51.488Z,97548.44
2023-05-06T19:43:20.476Z,97572.06
2023-05-06T19:45:46.973Z,97587.50
2023-05-06T19:48:14.644Z,97584.69
2023-05-06T19:50:41.561Z,97596.50
2023-05-06T19:53:08.160Z,97577.38
2023-05-06T19:55:35.100Z,97592.09
2023-05-06T19:58:02.319Z,97575.09
2023-05-06T20:00:31.515Z,97580.81
2023-05-06T20:03:00.008Z,97578.56
2023-05-06T20:05:31.386Z,97568.91
2023-05-06T20:08:01.402Z,97605.47
2023-05-06T20:10:28.663Z,97587.63
2023-05-06T20:12:57.624Z,97602.69
2023-05-06T20:15:24.773Z,97586.50
2023-05-06T20:17:54.430Z,97564.81
2023-05-06T20:20:24.370Z,97609.63
2023-05-06T20:22:54.052Z,97571.47
2023-05-06T20:25:23.528Z,97616.28
2023-05-06T20:27:52.960Z,97605.81
2023-05-06T20:30:20.586Z,97588.53
2023-05-06T20:32:47.969Z,97622.06
2023-05-06T20:35:16.676Z,97600.44
2023-05-06T20:37:44.143Z,97623.94
2023-05-06T20:40:11.175Z,97620.34
2023-05-06T20:42:37.968Z,97589.00
2023-05-06T20:45:05.204Z,97569.72
2023-05-06T20:47:31.860Z,97608.97
2023-05-06T20:49:58.609Z,97581.16
2023-05-06T20:52:25.172Z,97572.63
2023-05-06T20:54:52.546Z,97609.19
2023-05-06T20:57:21.502Z,97579.41
2023-05-06T20:59:51.880Z,97583.63
2023-05-06T21:02:18.527Z,97542.88
2023-05-06T21:04:45.082Z,97596.25
2023-05-06T21:07:11.674Z,97554.31
2023-05-06T21:09:38.435Z,97586.19
2023-05-06T21:12:05.212Z,97578.38
2023-05-06T21:14:31.862Z,97584.66
2023-05-06T21:16:58.505Z,97591.69
2023-05-06T21:19:25.065Z,97568.91
2023-05-06T21:22:06.423Z,97557.94
2023-05-06T21:24:34.398Z,97558.75
2023-05-06T21:27:01.510Z,97566.44
2023-05-06T21:29:28.363Z,97587.03
2023-05-06T21:31:55.092Z,97576.47
2023-05-06T21:34:22.882Z,97606.97
2023-05-06T21:36:49.470Z,97578.47
2023-05-06T21:39:16.362Z,97604.16
2023-05-06T21:41:43.006Z,97573.91
2023-05-06T21:44:10.286Z,97595.63
2023-05-06T21:46:37.797Z,97602.16
2023-05-06T21:49:27.829Z,97609.19
2023-05-06T21:51:55.520Z,97601.59
2023-05-06T21:54:25.424Z,97605.22
2023-05-06T21:56:56.020Z,97619.94
2023-05-06T21:59:24.766Z,97623.06
2023-05-06T22:01:51.358Z,97611.75
2023-05-06T22:04:19.980Z,97624.88
2023-05-06T22:06:46.533Z,97653.38
2023-05-06T22:09:13.195Z,97673.22
2023-05-06T22:11:39.768Z,97718.09
2023-05-06T22:14:06.863Z,97725.63
2023-05-06T22:16:35.318Z,97724.50
2023-05-06T22:19:02.165Z,97759.91
2023-05-06T22:21:30.560Z,97731.81
2023-05-06T22:23:57.396Z,97773.41
2023-05-06T22:26:30.379Z,97757.00
2023-05-06T22:28:56.956Z,97770.09
2023-05-06T22:31:25.829Z,97813.19
2023-05-06T22:33:57.702Z,97816.81
2023-05-06T22:36:29.656Z,97840.59
2023-05-06T22:38:56.710Z,97846.28
2023-05-06T22:41:23.247Z,97805.06
2023-05-06T22:43:49.861Z,97840.16
2023-05-06T22:46:16.782Z,97878.34
2023-05-06T22:48:46.412Z,97857.34
2023-05-06T22:51:15.785Z,97869.91
2023-05-06T22:53:42.374Z,97824.22
2023-05-06T22:56:09.334Z,97869.81
2023-05-06T22:58:36.163Z,97853.44
2023-05-06T23:01:02.986Z,97844.13
2023-05-06T23:03:29.655Z,97855.00
2023-05-06T23:05:59.718Z,97881.81
2023-05-06T23:08:28.301Z,97869.19
2023-05-06T23:10:54.892Z,97881.59
2023-05-06T23:13:21.568Z,97857.75
2023-05-06T23:15:48.241Z,97880.94
2023-05-06T23:18:14.921Z,97887.06
2023-05-06T23:20:42.205Z,97888.75
2023-05-06T23:23:10.740Z,97873.34
2023-05-06T23:25:37.428Z,97841.09
2023-05-06T23:28:04.250Z,97856.41
2023-05-06T23:30:31.034Z,97881.25
2023-05-06T23:33:01.746Z,97873.97
2023-05-06T23:35:32.221Z,97880.94
2023-05-06T23:38:01.850Z,97887.34
2023-05-06T23:40:31.265Z,97890.13
2023-05-06T23:42:59.939Z,97898.00
2023-05-06T23:45:26.917Z,97891.81
2023-05-06T23:47:54.378Z,97853.31
2023-05-06T23:50:20.999Z,97856.19
2023-05-06T23:52:47.567Z,97867.69
2023-05-06T23:55:14.335Z,97832.97
2023-05-06T23:57:41.032Z,97836.22
